Главная страница
METAR-TAF:

METAR-TAF

Аэропорты :

Уппсала, Швеция

широта: 59-53N, долгота: 017-36E, высота над уровнем моря: 21 м

Текущие метеонаблюдения

Эта сводка был подготовлена 24 минут назад, в 14:20 UTC
Ветер 3 Узел от северо-восточный
Температура 2°C
Влажность 100%
Давление 1025 hPa
Видимость: 2900 м
дымка

METAR: ESCM 151420Z AUTO 05003KT 2900 BR VV003 02/02 Q1025

Время: 15:44 (14:44 UTC)

Прогноз

Эта сводка был подготовлена 6 часа и 19 минут назад, в 08:25 UTC
Прогноз действительный с 15-го 09 UTC до 15-го 11 UTC
Ветер 3 Узел переменных направлений
Видимость 10 км и более
Рассеянная облачность на высоте 900 фута
временами
С 15-го 09 UTC до 15-го 11 UTC
Видимость: 4000 м
Рассеянная облачность на высоте 400 фута
дымка
временами
С 15-го 09 UTC до 15-го 11 UTC
Рассеянная облачность на высоте 2000 фута

TAF: ESCM 150825Z 1509/1511 VRB03KT 9999 BKN009 TEMPO 1509/1511 4000 BR BKN004 TEMPO 1509/1511 BKN020 RMK MIL

Метеонаблюдения и прогнозы для более 4000 аэропортов (сводки METAR и TAF).

Имеющиеся станции представлены на карте желтыми и красными точками.

Чтобы увидеть название станции, наведите на нее мышь.

Затем щелкните, чтобы увидеть метеонаблюдения и метеопрогнозы.

Управление картой: чтобы увеличить масштаб, щелкните зеленые кнопки с черным крестиком; чтобы уменьшить масштаб, щелкните зеленую кнопку с тире; для просмотра соседних карт щелкайте зеленые стрелки.


METAR-TAF: